createdAt,value
2023-02-04T00:00:34.745Z,99530.00
2023-02-04T00:03:01.335Z,99530.66
2023-02-04T00:05:27.969Z,99545.69
2023-02-04T00:07:54.514Z,99540.69
2023-02-04T00:10:21.198Z,99539.25
2023-02-04T00:12:47.819Z,99536.38
2023-02-04T00:15:14.435Z,99528.09
2023-02-04T00:17:41.025Z,99521.50
2023-02-04T00:20:07.850Z,99526.94
2023-02-04T00:22:34.354Z,99532.88
2023-02-04T00:27:38.899Z,99539.09
2023-02-04T00:30:06.776Z,99531.09
2023-02-04T00:32:33.720Z,99533.03
2023-02-04T00:37:35.951Z,99547.75
2023-02-04T00:42:40.560Z,99537.47
2023-02-04T00:45:07.465Z,99542.31
2023-02-04T00:47:34.048Z,99549.19
2023-02-04T00:50:00.595Z,99549.47
2023-02-04T00:52:27.171Z,99549.97
2023-02-04T00:54:53.732Z,99547.75
2023-02-04T00:57:20.292Z,99552.53
2023-02-04T00:59:46.840Z,99544.53
2023-02-04T01:02:13.402Z,99552.53
2023-02-04T01:04:39.953Z,99549.19
2023-02-04T01:07:06.558Z,99551.13
2023-02-04T01:09:34.126Z,99563.91
2023-02-04T01:12:00.702Z,99550.13
2023-02-04T01:14:27.466Z,99562.00
2023-02-04T01:16:54.057Z,99560.56
2023-02-04T01:19:21.205Z,99560.06
2023-02-04T01:21:47.981Z,99566.94
2023-02-04T01:24:14.529Z,99563.41
2023-02-04T01:26:41.033Z,99578.63
2023-02-04T01:31:38.926Z,99600.38
2023-02-04T01:34:05.567Z,99598.94
2023-02-04T01:36:32.110Z,99600.06
2023-02-04T01:39:01.137Z,99606.44
2023-02-04T01:41:28.313Z,99611.22
2023-02-04T01:46:34.818Z,99605.81
2023-02-04T01:49:01.549Z,99594.94
2023-02-04T01:54:15.009Z,99604.66
2023-02-04T01:56:45.526Z,99610.44
2023-02-04T01:59:14.316Z,99604.38
2023-02-04T02:01:43.655Z,99603.22
2023-02-04T02:04:11.849Z,99595.41
2023-02-04T02:06:41.464Z,99618.59
2023-02-04T02:09:08.371Z,99622.31
2023-02-04T02:11:35.016Z,99626.47
2023-02-04T02:14:01.573Z,99629.31
2023-02-04T02:16:28.119Z,99626.44
2023-02-04T02:18:54.799Z,99620.88
2023-02-04T02:21:39.514Z,99625.34
2023-02-04T02:24:26.414Z,99626.78
2023-02-04T02:26:54.938Z,99633.81
2023-02-04T02:31:57.588Z,99652.22
2023-02-04T02:34:26.188Z,99640.22
2023-02-04T02:36:53.466Z,99622.25
2023-02-04T02:39:20.543Z,99624.03
2023-02-04T02:41:47.240Z,99627.09
2023-02-04T02:44:14.883Z,99620.53
2023-02-04T02:46:41.536Z,99622.44
2023-02-04T02:49:15.824Z,99634.41
2023-02-04T02:51:42.993Z,99625.63
2023-02-04T02:54:36.077Z,99638.09
2023-02-04T02:57:02.631Z,99636.00
2023-02-04T02:59:29.342Z,99648.66
2023-02-04T03:02:00.396Z,99647.72
2023-02-04T03:04:30.155Z,99653.94
2023-02-04T03:06:56.960Z,99655.38
2023-02-04T03:09:25.855Z,99665.91
2023-02-04T03:11:52.582Z,99659.00
2023-02-04T03:14:19.820Z,99662.38
2023-02-04T03:16:47.434Z,99669.09
2023-02-04T03:19:14.285Z,99668.31
2023-02-04T03:21:41.614Z,99679.34
2023-02-04T03:24:08.305Z,99683.03
2023-02-04T03:26:35.215Z,99686.72
2023-02-04T03:29:01.948Z,99691.34
2023-02-04T03:31:28.666Z,99699.97
2023-02-04T03:33:55.228Z,99706.00
2023-02-04T03:36:22.033Z,99699.97
2023-02-04T03:38:48.623Z,99703.78
2023-02-04T03:41:15.153Z,99716.63
2023-02-04T03:43:41.684Z,99720.13
2023-02-04T03:46:08.304Z,99717.25
2023-02-04T03:48:34.934Z,99718.66
2023-02-04T03:51:01.556Z,99724.88
2023-02-04T03:53:28.139Z,99726.81
2023-02-04T03:55:54.685Z,99727.28
2023-02-04T03:58:22.381Z,99733.47
2023-02-04T04:00:49.489Z,99729.47
2023-02-04T04:05:47.626Z,99748.38
2023-02-04T04:08:14.167Z,99751.38
2023-02-04T04:10:42.033Z,99751.38
2023-02-04T04:13:08.649Z,99751.50
2023-02-04T04:15:35.140Z,99747.81
2023-02-04T04:18:02.801Z,99741.75
2023-02-04T04:20:29.511Z,99751.88
2023-02-04T04:22:56.276Z,99748.78
2023-02-04T04:25:22.857Z,99751.81
2023-02-04T04:27:49.400Z,99750.84
2023-02-04T04:30:16.040Z,99751.09
2023-02-04T04:32:42.570Z,99750.59
2023-02-04T04:35:09.191Z,99760.47
2023-02-04T04:37:35.732Z,99752.00
2023-02-04T04:40:02.867Z,99762.13
2023-02-04T04:42:29.432Z,99764.25
2023-02-04T04:44:56.029Z,99766.47
2023-02-04T04:47:22.527Z,99773.19
2023-02-04T04:49:49.063Z,99778.25
2023-02-04T04:52:15.583Z,99777.59
2023-02-04T04:54:42.082Z,99785.34
2023-02-04T04:57:08.617Z,99775.63
2023-02-04T05:02:06.422Z,99771.03
2023-02-04T05:04:33.021Z,99774.69
2023-02-04T05:06:59.668Z,99781.97
2023-02-04T05:09:26.352Z,99776.34
2023-02-04T05:11:52.918Z,99778.06
2023-02-04T05:16:56.520Z,99772.84
2023-02-04T05:19:23.036Z,99773.13
2023-02-04T05:21:49.625Z,99785.63
2023-02-04T05:24:16.164Z,99779.81
2023-02-04T05:26:42.740Z,99782.53
2023-02-04T05:29:10.827Z,99777.66
2023-02-04T05:31:37.488Z,99772.28
2023-02-04T05:34:04.123Z,99777.09
2023-02-04T05:36:30.754Z,99786.16
2023-02-04T05:38:57.286Z,99790.28
2023-02-04T05:41:23.880Z,99795.63
2023-02-04T05:43:50.380Z,99794.13
2023-02-04T05:46:16.875Z,99799.03
2023-02-04T05:48:43.397Z,99786.25
2023-02-04T05:51:09.904Z,99784.16
2023-02-04T05:53:36.421Z,99774.81
2023-02-04T05:56:03.043Z,99770.41
2023-02-04T05:58:33.510Z,99785.91
2023-02-04T06:01:01.717Z,99789.03
2023-02-04T06:03:29.637Z,99805.63
2023-02-04T06:05:56.938Z,99818.88
2023-02-04T06:08:23.485Z,99819.09
2023-02-04T06:10:50.022Z,99824.16
2023-02-04T06:13:16.908Z,99835.88
2023-02-04T06:15:43.501Z,99839.97
2023-02-04T06:18:10.150Z,99845.72
2023-02-04T06:20:36.683Z,99842.09
2023-02-04T06:23:03.232Z,99847.66
2023-02-04T06:25:29.761Z,99844.72
2023-02-04T06:27:56.436Z,99859.53
2023-02-04T06:30:22.968Z,99855.69
2023-02-04T06:32:49.494Z,99856.31
2023-02-04T06:35:16.736Z,99860.13
2023-02-04T06:37:43.691Z,99867.78
2023-02-04T06:40:11.478Z,99870.06
2023-02-04T06:42:38.034Z,99878.22
2023-02-04T06:45:05.295Z,99880.94
2023-02-04T06:47:31.946Z,99873.28
2023-02-04T06:49:58.472Z,99870.97
2023-02-04T06:52:25.051Z,99882.94
2023-02-04T06:54:51.591Z,99879.44
2023-02-04T06:57:18.146Z,99882.66
2023-02-04T06:59:44.716Z,99896.81
2023-02-04T07:02:12.453Z,99900.94
2023-02-04T07:07:11.799Z,99898.03
2023-02-04T07:09:40.657Z,99895.69
2023-02-04T07:12:07.562Z,99899.31
2023-02-04T07:14:37.259Z,99916.19
2023-02-04T07:17:04.040Z,99923.25
2023-02-04T07:19:30.557Z,99924.75
2023-02-04T07:21:57.328Z,99925.13
2023-02-04T07:24:24.120Z,99937.63
2023-02-04T07:26:50.835Z,99937.63
2023-02-04T07:29:25.094Z,99945.06
2023-02-04T07:31:52.999Z,99948.06
2023-02-04T07:34:20.352Z,99951.09
2023-02-04T07:36:47.017Z,99952.78
2023-02-04T07:39:13.616Z,99952.59
2023-02-04T07:41:41.069Z,99960.31
2023-02-04T07:44:07.680Z,99952.00
2023-02-04T07:46:34.302Z,99958.22
2023-02-04T07:49:00.967Z,99951.38
2023-02-04T07:51:28.021Z,99962.25
2023-02-04T07:53:55.934Z,99971.00
2023-02-04T07:58:54.114Z,99973.31
2023-02-04T08:01:20.693Z,99979.66
2023-02-04T08:03:47.281Z,99990.69
2023-02-04T08:06:13.876Z,99984.47
2023-02-04T08:08:40.420Z,99983.78
2023-02-04T08:11:07.023Z,99987.38
2023-02-04T08:13:33.609Z,99988.91
2023-02-04T08:16:00.206Z,99994.22
2023-02-04T08:18:26.808Z,100002.16
2023-02-04T08:20:53.522Z,100003.47
2023-02-04T08:23:20.410Z,100008.91
2023-02-04T08:28:18.487Z,100014.44
2023-02-04T08:30:45.134Z,100019.47
2023-02-04T08:33:11.765Z,100017.16
2023-02-04T08:35:38.276Z,100015.56
2023-02-04T08:38:04.810Z,100020.00
2023-02-04T08:40:31.909Z,100020.69
2023-02-04T08:42:58.757Z,100030.97
2023-02-04T08:45:25.300Z,100037.47
2023-02-04T08:47:51.806Z,100035.88
2023-02-04T08:50:18.486Z,100036.59
2023-02-04T08:52:45.012Z,100030.78
2023-02-04T08:55:11.602Z,100038.41
2023-02-04T08:57:38.173Z,100033.47
2023-02-04T09:00:05.004Z,100044.13
2023-02-04T09:05:10.081Z,100045.13
2023-02-04T09:07:36.616Z,100047.16
2023-02-04T09:10:03.444Z,100042.22
2023-02-04T09:12:29.984Z,100044.63
2023-02-04T09:14:56.505Z,100053.78
2023-02-04T09:17:23.113Z,100055.00
2023-02-04T09:19:49.628Z,100063.75
2023-02-04T09:22:16.153Z,100059.78
2023-02-04T09:24:42.648Z,100065.78
2023-02-04T09:27:09.274Z,100074.44
2023-02-04T09:32:12.941Z,100071.41
2023-02-04T09:34:39.639Z,100071.41
2023-02-04T09:39:44.675Z,100080.44
2023-02-04T09:42:15.128Z,100079.25
2023-02-04T09:44:42.061Z,100089.38
2023-02-04T09:47:11.715Z,100085.28
2023-02-04T09:49:38.272Z,100091.59
2023-02-04T09:54:38.466Z,100093.25
2023-02-04T09:57:15.077Z,100084.94
2023-02-04T09:59:43.493Z,100097.13
2023-02-04T10:02:26.346Z,100097.31
2023-02-04T10:04:57.652Z,100100.44
2023-02-04T10:07:26.595Z,100093.78
2023-02-04T10:09:54.453Z,100099.50
2023-02-04T10:12:21.729Z,100094.78
2023-02-04T10:17:22.947Z,100088.41
2023-02-04T10:19:49.757Z,100104.13
2023-02-04T10:22:19.929Z,100106.19
2023-02-04T10:24:46.813Z,100107.25
2023-02-04T10:27:16.364Z,100111.19
2023-02-04T10:29:43.631Z,100105.06
2023-02-04T10:32:26.989Z,100100.75
2023-02-04T10:34:58.880Z,100102.00
2023-02-04T10:42:31.021Z,100096.13
2023-02-04T10:44:58.526Z,100097.88
2023-02-04T10:47:29.064Z,100099.47
2023-02-04T10:50:15.423Z,100096.88
2023-02-04T10:52:45.649Z,100097.69
2023-02-04T10:58:02.078Z,100089.41
2023-02-04T11:00:30.022Z,100084.53
2023-02-04T11:05:36.144Z,100086.44
2023-02-04T11:08:18.401Z,100099.69
2023-02-04T11:10:45.277Z,100102.19
2023-02-04T11:13:22.624Z,100103.31
2023-02-04T11:15:55.207Z,100090.28
2023-02-04T11:18:21.953Z,100096.41
2023-02-04T11:20:55.132Z,100105.31
2023-02-04T11:23:27.640Z,100098.88
2023-02-04T11:26:07.545Z,100089.41
2023-02-04T11:28:46.262Z,100099.00
2023-02-04T11:31:19.998Z,100096.25
2023-02-04T11:33:48.093Z,100093.84
2023-02-04T11:38:49.971Z,100092.09
2023-02-04T11:41:31.795Z,100089.59
2023-02-04T11:43:58.508Z,100087.69
2023-02-04T11:46:28.397Z,100085.56
2023-02-04T11:48:57.721Z,100092.22
2023-02-04T11:51:30.485Z,100090.28
2023-02-04T12:01:50.133Z,100087.75
2023-02-04T12:04:24.912Z,100087.88
2023-02-04T12:07:03.545Z,100088.56
2023-02-04T12:09:31.530Z,100095.16
2023-02-04T12:12:03.624Z,100095.38
2023-02-04T12:17:19.504Z,100091.53
2023-02-04T12:19:46.227Z,100092.94
2023-02-04T12:22:14.766Z,100091.13
2023-02-04T12:24:41.832Z,100098.50
2023-02-04T12:27:08.556Z,100098.59
2023-02-04T12:29:35.068Z,100107.28
2023-02-04T12:32:01.695Z,100111.94
2023-02-04T12:34:29.037Z,100116.59
2023-02-04T12:36:55.660Z,100113.56
2023-02-04T12:39:22.167Z,100097.88
2023-02-04T12:41:48.737Z,100101.88
2023-02-04T12:44:17.451Z,100103.72
2023-02-04T12:49:15.398Z,100112.22
2023-02-04T12:51:42.021Z,100105.16
2023-02-04T12:54:08.541Z,100111.22
2023-02-04T12:56:35.077Z,100111.53
2023-02-04T12:59:01.685Z,100113.63
2023-02-04T13:01:28.244Z,100112.56
2023-02-04T13:03:54.853Z,100109.44
2023-02-04T13:06:21.490Z,100111.34
2023-02-04T13:11:25.391Z,100103.88
2023-02-04T13:13:51.886Z,100104.84
2023-02-04T13:16:19.520Z,100107.25
2023-02-04T13:18:46.096Z,100108.53
2023-02-04T13:21:12.628Z,100101.06
2023-02-04T13:23:39.165Z,100100.81
2023-02-04T13:28:39.772Z,100108.19
2023-02-04T13:31:06.621Z,100117.16
2023-02-04T13:33:33.381Z,100113.50
2023-02-04T13:35:59.955Z,100118.25
2023-02-04T13:38:26.639Z,100115.53
2023-02-04T13:40:53.138Z,100110.56
2023-02-04T13:43:19.696Z,100117.25
2023-02-04T13:45:48.858Z,100113.34
2023-02-04T13:48:16.520Z,100119.34
2023-02-04T13:50:43.096Z,100112.53
2023-02-04T13:53:09.758Z,100127.72
2023-02-04T13:55:36.384Z,100133.03
2023-02-04T13:58:02.952Z,100123.13
2023-02-04T14:00:29.487Z,100119.41
2023-02-04T14:02:56.750Z,100120.09
2023-02-04T14:05:23.363Z,100119.94
2023-02-04T14:07:49.952Z,100117.47
2023-02-04T14:10:19.567Z,100118.28
2023-02-04T14:12:46.170Z,100129.41
2023-02-04T14:15:12.775Z,100126.63
2023-02-04T14:17:39.393Z,100113.00
2023-02-04T14:20:06.284Z,100117.06
2023-02-04T14:22:32.813Z,100120.28
2023-02-04T14:24:59.344Z,100124.69
2023-02-04T14:27:25.948Z,100128.69
2023-02-04T14:29:52.494Z,100122.25
2023-02-04T14:32:20.997Z,100141.59
2023-02-04T14:34:47.589Z,100128.75
2023-02-04T14:37:14.102Z,100132.09
2023-02-04T14:39:40.643Z,100144.72
2023-02-04T14:44:45.058Z,100141.63
2023-02-04T14:47:11.558Z,100136.22
2023-02-04T14:49:38.213Z,100150.09
2023-02-04T14:52:04.950Z,100152.91
2023-02-04T14:54:31.487Z,100144.59
2023-02-04T14:56:58.030Z,100151.22
2023-02-04T14:59:24.611Z,100155.84
2023-02-04T15:01:51.154Z,100161.66
2023-02-04T15:04:18.677Z,100148.66
2023-02-04T15:06:46.192Z,100159.66
2023-02-04T15:09:13.166Z,100154.75
2023-02-04T15:11:40.088Z,100163.84
2023-02-04T15:14:06.656Z,100164.03
2023-02-04T15:16:33.273Z,100160.75
2023-02-04T15:18:59.802Z,100161.41
2023-02-04T15:21:27.449Z,100160.22
2023-02-04T15:26:25.337Z,100156.25
2023-02-04T15:28:52.002Z,100157.59
2023-02-04T15:31:18.628Z,100165.66
2023-02-04T15:33:45.232Z,100160.78
2023-02-04T15:36:11.784Z,100164.78
2023-02-04T15:38:38.299Z,100172.59
2023-02-04T15:41:05.364Z,100175.50
2023-02-04T15:43:31.978Z,100168.00
2023-02-04T15:45:58.627Z,100172.66
2023-02-04T15:48:25.324Z,100183.44
2023-02-04T15:50:51.856Z,100186.56
2023-02-04T15:53:18.521Z,100177.00
2023-02-04T15:55:45.256Z,100187.47
2023-02-04T15:58:12.083Z,100182.66
2023-02-04T16:00:38.773Z,100177.59
2023-02-04T16:03:05.728Z,100194.22
2023-02-04T16:05:32.354Z,100199.75
2023-02-04T16:07:58.982Z,100202.56
2023-02-04T16:10:25.495Z,100196.44
2023-02-04T16:12:55.010Z,100196.94
2023-02-04T16:15:21.537Z,100199.75
2023-02-04T16:17:48.437Z,100210.78
2023-02-04T16:20:15.062Z,100202.22
2023-02-04T16:22:41.565Z,100208.94
2023-02-04T16:25:08.426Z,100214.16
2023-02-04T16:27:35.349Z,100217.69
2023-02-04T16:30:02.611Z,100222.25
2023-02-04T16:35:08.401Z,100217.88
2023-02-04T16:37:36.157Z,100234.06
2023-02-04T16:40:02.767Z,100223.81
2023-02-04T16:42:31.154Z,100232.78
2023-02-04T16:44:58.035Z,100235.78
2023-02-04T16:50:00.834Z,100233.25
2023-02-04T16:52:29.218Z,100229.34
2023-02-04T16:57:27.017Z,100238.75
2023-02-04T16:59:53.620Z,100244.50
2023-02-04T17:02:20.179Z,100235.78
2023-02-04T17:04:46.772Z,100241.03
2023-02-04T17:07:13.311Z,100253.69
2023-02-04T17:12:17.175Z,100249.25
2023-02-04T17:14:43.802Z,100249.91
2023-02-04T17:17:10.321Z,100243.94
2023-02-04T17:19:36.890Z,100248.28
2023-02-04T17:22:03.474Z,100248.16
2023-02-04T17:24:30.021Z,100245.84
2023-02-04T17:26:56.601Z,100249.78
2023-02-04T17:29:24.990Z,100249.38
2023-02-04T17:31:52.973Z,100252.66
2023-02-04T17:34:19.613Z,100254.78
2023-02-04T17:36:46.322Z,100260.00
2023-02-04T17:39:12.918Z,100257.50
2023-02-04T17:44:20.194Z,100255.97
2023-02-04T17:46:46.852Z,100256.81
2023-02-04T17:49:13.498Z,100261.91
2023-02-04T17:51:40.013Z,100265.16
2023-02-04T17:54:06.531Z,100262.50
2023-02-04T17:56:33.100Z,100274.47
2023-02-04T17:58:59.622Z,100278.91
2023-02-04T18:01:26.320Z,100278.09
2023-02-04T18:03:53.226Z,100277.44
2023-02-04T18:06:20.491Z,100282.88
2023-02-04T18:08:48.046Z,100280.69
2023-02-04T18:11:25.436Z,100281.94
2023-02-04T18:13:55.579Z,100290.47
2023-02-04T18:19:18.361Z,100282.59
2023-02-04T18:21:46.713Z,100282.63
2023-02-04T18:24:27.327Z,100274.25
2023-02-04T18:26:56.477Z,100281.72
2023-02-04T18:29:35.254Z,100275.31
2023-02-04T18:32:06.383Z,100274.25
2023-02-04T18:34:41.644Z,100269.94
2023-02-04T18:37:37.022Z,100273.22
2023-02-04T18:40:09.367Z,100277.09
2023-02-04T18:42:41.228Z,100277.41
2023-02-04T18:45:29.535Z,100275.84
2023-02-04T18:48:01.805Z,100269.94
2023-02-04T18:50:30.072Z,100268.06
2023-02-04T18:53:26.897Z,100270.06
2023-02-04T18:55:58.683Z,100275.63
2023-02-04T18:58:41.769Z,100282.13
2023-02-04T19:01:10.935Z,100286.56
2023-02-04T19:03:45.316Z,100280.22
2023-02-04T19:06:39.426Z,100284.50
2023-02-04T19:09:26.054Z,100290.31
2023-02-04T19:11:55.472Z,100291.75
2023-02-04T19:14:35.873Z,100291.22
2023-02-04T19:17:14.518Z,100282.53
2023-02-04T19:20:00.029Z,100292.31
2023-02-04T19:22:41.672Z,100279.16
2023-02-04T19:28:33.702Z,100276.50
2023-02-04T19:31:03.312Z,100274.97
2023-02-04T19:33:40.172Z,100278.81
2023-02-04T19:36:23.348Z,100276.94
2023-02-04T19:39:00.716Z,100281.31
2023-02-04T19:41:59.513Z,100289.16
2023-02-04T19:44:42.109Z,100279.50
2023-02-04T19:47:36.500Z,100289.78
2023-02-04T19:50:03.190Z,100283.84
2023-02-04T19:52:35.001Z,100289.81
2023-02-04T19:55:16.675Z,100284.44
2023-02-04T19:57:50.025Z,100283.81
2023-02-04T20:00:28.995Z,100279.53
2023-02-04T20:02:57.641Z,100279.28
2023-02-04T20:05:26.738Z,100280.69
2023-02-04T20:07:53.288Z,100288.47
2023-02-04T20:10:28.237Z,100305.66
2023-02-04T20:13:12.538Z,100296.50
2023-02-04T20:15:39.191Z,100299.31
2023-02-04T20:18:17.048Z,100306.09
2023-02-04T20:20:45.438Z,100312.28
2023-02-04T20:23:31.899Z,100319.31
2023-02-04T20:26:00.653Z,100318.47
2023-02-04T20:28:40.097Z,100318.22
2023-02-04T20:31:22.681Z,100323.91
2023-02-04T20:33:52.167Z,100323.38
2023-02-04T20:36:33.382Z,100328.13
2023-02-04T20:39:15.920Z,100329.56
2023-02-04T20:41:43.041Z,100321.78
2023-02-04T20:44:27.615Z,100327.72
2023-02-04T20:47:11.583Z,100331.47
2023-02-04T20:49:41.391Z,100325.56
2023-02-04T20:52:39.678Z,100330.97
2023-02-04T20:58:24.342Z,100332.84
2023-02-04T21:00:53.957Z,100331.50
2023-02-04T21:03:36.872Z,100327.97
2023-02-04T21:06:21.075Z,100337.97
2023-02-04T21:08:49.911Z,100340.94
2023-02-04T21:11:16.559Z,100332.03
2023-02-04T21:13:43.158Z,100338.78
2023-02-04T21:16:10.127Z,100328.22
2023-02-04T21:21:09.976Z,100333.38
2023-02-04T21:23:37.058Z,100333.66
2023-02-04T21:26:04.841Z,100325.03
2023-02-04T21:28:32.502Z,100326.38
2023-02-04T21:31:00.349Z,100323.91
2023-02-04T21:35:58.250Z,100322.84
2023-02-04T21:38:24.858Z,100327.16
2023-02-04T21:40:51.491Z,100326.88
2023-02-04T21:43:18.030Z,100332.56
2023-02-04T21:45:44.818Z,100340.94
2023-02-04T21:48:11.454Z,100343.38
2023-02-04T21:50:38.716Z,100340.69
2023-02-04T21:53:06.623Z,100345.50
2023-02-04T21:55:34.435Z,100345.50
2023-02-04T21:58:01.261Z,100350.31
2023-02-04T22:00:27.836Z,100357.31
2023-02-04T22:02:54.832Z,100350.25
2023-02-04T22:05:22.391Z,100352.97
2023-02-04T22:07:49.432Z,100351.38
2023-02-04T22:10:23.086Z,100355.69
2023-02-04T22:12:49.771Z,100356.50
2023-02-04T22:15:24.318Z,100354.06
2023-02-04T22:17:52.886Z,100359.75
2023-02-04T22:20:20.809Z,100353.63
2023-02-04T22:22:48.130Z,100349.59
2023-02-04T22:25:16.871Z,100353.84
2023-02-04T22:30:15.796Z,100351.19
2023-02-04T22:32:42.980Z,100344.47
2023-02-04T22:35:11.260Z,100344.19
2023-02-04T22:37:38.965Z,100335.28
2023-02-04T22:40:06.668Z,100337.16
2023-02-04T22:42:33.535Z,100338.78
2023-02-04T22:45:00.145Z,100339.31
2023-02-04T22:47:26.652Z,100339.31
2023-02-04T22:49:53.169Z,100330.66
2023-02-04T22:52:19.808Z,100339.56
2023-02-04T22:54:46.326Z,100345.78
2023-02-04T22:57:12.897Z,100351.72
2023-02-04T22:59:39.507Z,100353.88
2023-02-04T23:02:06.093Z,100356.03
2023-02-04T23:04:32.680Z,100359.00
2023-02-04T23:07:00.861Z,100357.94
2023-02-04T23:09:28.398Z,100366.06
2023-02-04T23:11:56.847Z,100356.84
2023-02-04T23:14:23.866Z,100359.28
2023-02-04T23:16:51.363Z,100357.16
2023-02-04T23:19:17.939Z,100350.94
2023-02-04T23:21:44.508Z,100354.69
2023-02-04T23:24:11.148Z,100346.06
2023-02-04T23:26:37.656Z,100351.19
2023-02-04T23:29:04.256Z,100345.00
2023-02-04T23:31:30.831Z,100345.53
2023-02-04T23:33:57.404Z,100342.84
2023-02-04T23:36:23.998Z,100341.19
2023-02-04T23:38:50.530Z,100345.53
2023-02-04T23:41:17.123Z,100340.94
2023-02-04T23:43:43.618Z,100348.75
2023-02-04T23:46:10.521Z,100354.72
2023-02-04T23:48:37.085Z,100355.50
2023-02-04T23:51:03.746Z,100358.19
2023-02-04T23:53:30.277Z,100356.31
2023-02-04T23:55:56.797Z,100357.94
2023-02-04T23:58:23.336Z,100357.94
